sensor_id;sensor_type;location;lat;lon;timestamp;temperature;humidity
34135;DHT22;20410;55.578;12.968;2022-07-22T00:02:23;19.90;99.90
34135;DHT22;20410;55.578;12.968;2022-07-22T00:04:49;19.90;99.90
34135;DHT22;20410;55.578;12.968;2022-07-22T00:07:15;19.90;99.90
34135;DHT22;20410;55.578;12.968;2022-07-22T00:09:41;19.90;99.90
34135;DHT22;20410;55.578;12.968;2022-07-22T00:12:06;19.80;99.90
34135;DHT22;20410;55.578;12.968;2022-07-22T00:14:32;19.80;99.90
34135;DHT22;20410;55.578;12.968;2022-07-22T00:16:58;19.90;99.90
34135;DHT22;20410;55.578;12.968;2022-07-22T00:19:24;19.80;99.90
34135;DHT22;20410;55.578;12.968;2022-07-22T00:21:50;19.80;99.90
34135;DHT22;20410;55.578;12.968;2022-07-22T00:24:17;19.80;99.90
34135;DHT22;20410;55.578;12.968;2022-07-22T00:26:42;19.70;99.90
34135;DHT22;20410;55.578;12.968;2022-07-22T00:29:08;19.80;99.90
34135;DHT22;20410;55.578;12.968;2022-07-22T00:31:34;19.80;99.90
34135;DHT22;20410;55.578;12.968;2022-07-22T00:34:00;19.80;99.90
34135;DHT22;20410;55.578;12.968;2022-07-22T00:36:31;19.80;99.90
34135;DHT22;20410;55.578;12.968;2022-07-22T00:38:57;19.80;99.90
34135;DHT22;20410;55.578;12.968;2022-07-22T00:41:23;19.80;99.90
34135;DHT22;20410;55.578;12.968;2022-07-22T00:43:59;19.80;99.90
34135;DHT22;20410;55.578;12.968;2022-07-22T00:46:26;19.80;99.90
34135;DHT22;20410;55.578;12.968;2022-07-22T00:48:54;19.80;99.90
34135;DHT22;20410;55.578;12.968;2022-07-22T00:51:21;19.70;99.90
34135;DHT22;20410;55.578;12.968;2022-07-22T00:53:48;19.80;99.90
34135;DHT22;20410;55.578;12.968;2022-07-22T00:56:16;19.80;99.90
34135;DHT22;20410;55.578;12.968;2022-07-22T00:58:42;19.80;99.90
34135;DHT22;20410;55.578;12.968;2022-07-22T01:01:08;19.80;99.90
34135;DHT22;20410;55.578;12.968;2022-07-22T01:03:35;19.70;99.90
34135;DHT22;20410;55.578;12.968;2022-07-22T01:06:00;19.80;99.90
34135;DHT22;20410;55.578;12.968;2022-07-22T01:08:26;19.80;99.90
34135;DHT22;20410;55.578;12.968;2022-07-22T01:10:52;19.80;99.90
34135;DHT22;20410;55.578;12.968;2022-07-22T01:13:17;19.80;99.90
34135;DHT22;20410;55.578;12.968;2022-07-22T01:15:43;19.80;99.90
34135;DHT22;20410;55.578;12.968;2022-07-22T01:18:09;19.80;99.90
34135;DHT22;20410;55.578;12.968;2022-07-22T01:20:35;19.80;99.90
34135;DHT22;20410;55.578;12.968;2022-07-22T01:23:01;19.90;99.90
34135;DHT22;20410;55.578;12.968;2022-07-22T01:25:27;19.90;99.90
34135;DHT22;20410;55.578;12.968;2022-07-22T01:27:53;19.90;99.90
34135;DHT22;20410;55.578;12.968;2022-07-22T01:30:19;19.90;99.90
34135;DHT22;20410;55.578;12.968;2022-07-22T01:32:44;19.90;99.90
34135;DHT22;20410;55.578;12.968;2022-07-22T01:35:10;19.90;99.90
34135;DHT22;20410;55.578;12.968;2022-07-22T01:37:35;19.90;99.90
34135;DHT22;20410;55.578;12.968;2022-07-22T01:40:02;20.00;99.90
34135;DHT22;20410;55.578;12.968;2022-07-22T01:42:28;20.00;99.90
34135;DHT22;20410;55.578;12.968;2022-07-22T01:44:53;20.10;99.90
34135;DHT22;20410;55.578;12.968;2022-07-22T01:47:19;20.20;99.90
34135;DHT22;20410;55.578;12.968;2022-07-22T01:49:44;20.20;99.90
34135;DHT22;20410;55.578;12.968;2022-07-22T01:52:10;20.20;99.90
34135;DHT22;20410;55.578;12.968;2022-07-22T01:54:35;20.20;99.90
34135;DHT22;20410;55.578;12.968;2022-07-22T01:57:01;20.20;99.90
34135;DHT22;20410;55.578;12.968;2022-07-22T01:59:27;20.20;99.90
34135;DHT22;20410;55.578;12.968;2022-07-22T02:01:52;20.20;99.90
34135;DHT22;20410;55.578;12.968;2022-07-22T02:04:18;20.20;99.90
34135;DHT22;20410;55.578;12.968;2022-07-22T02:06:44;20.20;99.90
34135;DHT22;20410;55.578;12.968;2022-07-22T02:09:09;20.20;99.90
34135;DHT22;20410;55.578;12.968;2022-07-22T02:11:35;20.10;99.90
34135;DHT22;20410;55.578;12.968;2022-07-22T02:14:01;20.10;99.90
34135;DHT22;20410;55.578;12.968;2022-07-22T02:16:27;20.10;99.90
34135;DHT22;20410;55.578;12.968;2022-07-22T02:18:52;20.10;99.90
34135;DHT22;20410;55.578;12.968;2022-07-22T02:21:18;20.10;99.90
34135;DHT22;20410;55.578;12.968;2022-07-22T02:23:44;20.00;99.90
34135;DHT22;20410;55.578;12.968;2022-07-22T02:26:10;19.90;99.90
34135;DHT22;20410;55.578;12.968;2022-07-22T02:28:35;19.90;99.90
34135;DHT22;20410;55.578;12.968;2022-07-22T02:31:01;19.90;99.90
34135;DHT22;20410;55.578;12.968;2022-07-22T02:33:26;20.00;99.90
34135;DHT22;20410;55.578;12.968;2022-07-22T02:35:52;19.90;99.90
34135;DHT22;20410;55.578;12.968;2022-07-22T02:38:17;19.90;99.90
34135;DHT22;20410;55.578;12.968;2022-07-22T02:40:43;19.80;99.90
34135;DHT22;20410;55.578;12.968;2022-07-22T02:43:09;19.80;99.90
34135;DHT22;20410;55.578;12.968;2022-07-22T02:45:34;19.90;99.90
34135;DHT22;20410;55.578;12.968;2022-07-22T02:48:00;19.90;99.90
34135;DHT22;20410;55.578;12.968;2022-07-22T02:50:26;19.80;99.90
34135;DHT22;20410;55.578;12.968;2022-07-22T02:52:52;19.80;99.90
34135;DHT22;20410;55.578;12.968;2022-07-22T02:55:18;19.70;99.90
34135;DHT22;20410;55.578;12.968;2022-07-22T02:57:43;19.70;99.90
34135;DHT22;20410;55.578;12.968;2022-07-22T03:00:10;19.70;99.90
34135;DHT22;20410;55.578;12.968;2022-07-22T03:02:37;19.70;99.90
34135;DHT22;20410;55.578;12.968;2022-07-22T03:05:04;19.60;99.90
34135;DHT22;20410;55.578;12.968;2022-07-22T03:07:30;19.50;99.90
34135;DHT22;20410;55.578;12.968;2022-07-22T03:09:56;19.50;99.90
34135;DHT22;20410;55.578;12.968;2022-07-22T03:12:21;19.40;99.90
34135;DHT22;20410;55.578;12.968;2022-07-22T03:14:47;19.30;99.90
34135;DHT22;20410;55.578;12.968;2022-07-22T03:17:12;19.30;99.90
34135;DHT22;20410;55.578;12.968;2022-07-22T03:19:38;19.30;99.90
34135;DHT22;20410;55.578;12.968;2022-07-22T03:22:04;19.20;99.90
34135;DHT22;20410;55.578;12.968;2022-07-22T03:24:29;19.20;99.90
34135;DHT22;20410;55.578;12.968;2022-07-22T03:26:55;19.30;99.90
34135;DHT22;20410;55.578;12.968;2022-07-22T03:29:20;19.30;99.90
34135;DHT22;20410;55.578;12.968;2022-07-22T03:31:46;19.20;99.90
34135;DHT22;20410;55.578;12.968;2022-07-22T03:34:11;19.30;99.90
34135;DHT22;20410;55.578;12.968;2022-07-22T03:36:37;19.20;99.90
34135;DHT22;20410;55.578;12.968;2022-07-22T03:39:03;19.20;99.90
34135;DHT22;20410;55.578;12.968;2022-07-22T03:41:28;19.20;99.90
34135;DHT22;20410;55.578;12.968;2022-07-22T03:43:54;19.20;99.90
34135;DHT22;20410;55.578;12.968;2022-07-22T03:46:19;19.20;99.90
34135;DHT22;20410;55.578;12.968;2022-07-22T03:48:45;19.10;99.90
34135;DHT22;20410;55.578;12.968;2022-07-22T03:51:11;19.20;99.90
34135;DHT22;20410;55.578;12.968;2022-07-22T03:53:36;19.20;99.90
34135;DHT22;20410;55.578;12.968;2022-07-22T03:56:02;19.20;99.90
34135;DHT22;20410;55.578;12.968;2022-07-22T03:58:27;19.20;99.90
34135;DHT22;20410;55.578;12.968;2022-07-22T04:00:54;19.20;99.90
34135;DHT22;20410;55.578;12.968;2022-07-22T04:03:19;19.20;99.90
34135;DHT22;20410;55.578;12.968;2022-07-22T04:05:45;19.10;99.90
34135;DHT22;20410;55.578;12.968;2022-07-22T04:08:12;19.20;99.90
34135;DHT22;20410;55.578;12.968;2022-07-22T04:10:37;19.30;99.90
34135;DHT22;20410;55.578;12.968;2022-07-22T04:13:03;19.40;99.90
34135;DHT22;20410;55.578;12.968;2022-07-22T04:15:29;19.30;99.90
34135;DHT22;20410;55.578;12.968;2022-07-22T04:17:54;19.30;99.90
34135;DHT22;20410;55.578;12.968;2022-07-22T04:20:20;19.20;99.90
34135;DHT22;20410;55.578;12.968;2022-07-22T04:22:46;19.10;99.90
34135;DHT22;20410;55.578;12.968;2022-07-22T04:25:11;19.00;99.90
34135;DHT22;20410;55.578;12.968;2022-07-22T04:27:37;18.90;99.90
34135;DHT22;20410;55.578;12.968;2022-07-22T04:30:03;18.90;99.90
34135;DHT22;20410;55.578;12.968;2022-07-22T04:32:29;18.90;99.90
34135;DHT22;20410;55.578;12.968;2022-07-22T04:34:54;18.90;99.90
34135;DHT22;20410;55.578;12.968;2022-07-22T04:37:20;18.80;99.90
34135;DHT22;20410;55.578;12.968;2022-07-22T04:39:46;18.80;99.90
34135;DHT22;20410;55.578;12.968;2022-07-22T04:42:11;18.80;99.90
34135;DHT22;20410;55.578;12.968;2022-07-22T04:44:37;18.80;99.90
34135;DHT22;20410;55.578;12.968;2022-07-22T04:47:02;18.80;99.90
34135;DHT22;20410;55.578;12.968;2022-07-22T04:49:28;18.80;99.90
34135;DHT22;20410;55.578;12.968;2022-07-22T04:51:54;18.90;99.90
34135;DHT22;20410;55.578;12.968;2022-07-22T04:54:19;18.90;99.90
34135;DHT22;20410;55.578;12.968;2022-07-22T04:56:45;19.00;99.90
34135;DHT22;20410;55.578;12.968;2022-07-22T04:59:10;19.10;99.90
34135;DHT22;20410;55.578;12.968;2022-07-22T05:01:36;19.10;99.90
34135;DHT22;20410;55.578;12.968;2022-07-22T05:04:02;19.20;99.90
34135;DHT22;20410;55.578;12.968;2022-07-22T05:06:28;19.20;99.90
34135;DHT22;20410;55.578;12.968;2022-07-22T05:08:53;19.20;99.90
34135;DHT22;20410;55.578;12.968;2022-07-22T05:11:19;19.20;99.90
34135;DHT22;20410;55.578;12.968;2022-07-22T05:13:44;19.30;99.90
34135;DHT22;20410;55.578;12.968;2022-07-22T05:16:10;19.30;99.90
34135;DHT22;20410;55.578;12.968;2022-07-22T05:18:36;19.40;99.90
34135;DHT22;20410;55.578;12.968;2022-07-22T05:21:03;19.40;99.90
34135;DHT22;20410;55.578;12.968;2022-07-22T05:23:28;19.60;99.90
34135;DHT22;20410;55.578;12.968;2022-07-22T05:25:54;19.70;99.90
34135;DHT22;20410;55.578;12.968;2022-07-22T05:28:19;19.80;99.90
34135;DHT22;20410;55.578;12.968;2022-07-22T05:30:45;19.90;99.90
34135;DHT22;20410;55.578;12.968;2022-07-22T05:33:11;19.90;99.90
34135;DHT22;20410;55.578;12.968;2022-07-22T05:35:36;19.90;99.90
34135;DHT22;20410;55.578;12.968;2022-07-22T05:38:02;19.90;99.90
34135;DHT22;20410;55.578;12.968;2022-07-22T05:40:28;20.00;99.90
34135;DHT22;20410;55.578;12.968;2022-07-22T05:42:54;20.00;99.90
34135;DHT22;20410;55.578;12.968;2022-07-22T05:45:20;20.00;99.90
34135;DHT22;20410;55.578;12.968;2022-07-22T05:47:46;20.00;99.90
34135;DHT22;20410;55.578;12.968;2022-07-22T05:50:11;20.10;99.90
34135;DHT22;20410;55.578;12.968;2022-07-22T05:52:38;20.20;99.90
34135;DHT22;20410;55.578;12.968;2022-07-22T05:55:05;20.20;99.90
34135;DHT22;20410;55.578;12.968;2022-07-22T05:57:31;20.20;99.90
34135;DHT22;20410;55.578;12.968;2022-07-22T05:59:56;20.30;99.90
34135;DHT22;20410;55.578;12.968;2022-07-22T06:02:22;20.40;99.90
34135;DHT22;20410;55.578;12.968;2022-07-22T06:04:48;20.40;99.90
34135;DHT22;20410;55.578;12.968;2022-07-22T06:07:13;20.40;99.90
34135;DHT22;20410;55.578;12.968;2022-07-22T06:09:39;20.30;99.90
34135;DHT22;20410;55.578;12.968;2022-07-22T06:12:05;20.30;99.90
34135;DHT22;20410;55.578;12.968;2022-07-22T06:14:31;20.30;99.90
34135;DHT22;20410;55.578;12.968;2022-07-22T06:16:57;20.30;99.90
34135;DHT22;20410;55.578;12.968;2022-07-22T06:19:22;20.30;99.90
34135;DHT22;20410;55.578;12.968;2022-07-22T06:21:50;20.20;99.90
34135;DHT22;20410;55.578;12.968;2022-07-22T06:24:15;20.20;99.90
34135;DHT22;20410;55.578;12.968;2022-07-22T06:26:41;20.20;99.90
34135;DHT22;20410;55.578;12.968;2022-07-22T06:29:07;20.10;99.90
34135;DHT22;20410;55.578;12.968;2022-07-22T06:31:32;20.20;99.90
34135;DHT22;20410;55.578;12.968;2022-07-22T06:33:58;20.20;99.90
34135;DHT22;20410;55.578;12.968;2022-07-22T06:36:23;20.10;99.90
34135;DHT22;20410;55.578;12.968;2022-07-22T06:38:49;20.00;99.90
34135;DHT22;20410;55.578;12.968;2022-07-22T06:41:15;20.10;99.90
34135;DHT22;20410;55.578;12.968;2022-07-22T06:43:45;20.20;99.90
34135;DHT22;20410;55.578;12.968;2022-07-22T06:46:10;20.20;99.90
34135;DHT22;20410;55.578;12.968;2022-07-22T06:48:36;20.20;99.90
34135;DHT22;20410;55.578;12.968;2022-07-22T06:51:01;20.30;99.90
34135;DHT22;20410;55.578;12.968;2022-07-22T06:53:27;20.30;99.90
34135;DHT22;20410;55.578;12.968;2022-07-22T06:55:53;20.40;99.90
34135;DHT22;20410;55.578;12.968;2022-07-22T06:58:18;20.40;99.90
34135;DHT22;20410;55.578;12.968;2022-07-22T07:00:44;20.70;99.90
34135;DHT22;20410;55.578;12.968;2022-07-22T07:03:09;21.00;99.90
34135;DHT22;20410;55.578;12.968;2022-07-22T07:05:35;21.40;99.90
34135;DHT22;20410;55.578;12.968;2022-07-22T07:08:01;21.70;99.90
34135;DHT22;20410;55.578;12.968;2022-07-22T07:10:26;21.90;99.90
34135;DHT22;20410;55.578;12.968;2022-07-22T07:12:56;22.20;99.90
34135;DHT22;20410;55.578;12.968;2022-07-22T07:15:21;22.20;99.90
34135;DHT22;20410;55.578;12.968;2022-07-22T07:17:47;22.20;99.90
34135;DHT22;20410;55.578;12.968;2022-07-22T07:20:13;22.10;99.90
34135;DHT22;20410;55.578;12.968;2022-07-22T07:22:38;22.10;99.90
34135;DHT22;20410;55.578;12.968;2022-07-22T07:25:05;22.10;99.90
34135;DHT22;20410;55.578;12.968;2022-07-22T07:27:31;22.00;99.90
34135;DHT22;20410;55.578;12.968;2022-07-22T07:29:56;22.10;99.90
34135;DHT22;20410;55.578;12.968;2022-07-22T07:32:22;22.20;99.90
34135;DHT22;20410;55.578;12.968;2022-07-22T07:34:48;22.20;99.90
34135;DHT22;20410;55.578;12.968;2022-07-22T07:37:13;22.20;99.90
34135;DHT22;20410;55.578;12.968;2022-07-22T07:39:39;22.30;99.90
34135;DHT22;20410;55.578;12.968;2022-07-22T07:42:04;22.40;99.90
34135;DHT22;20410;55.578;12.968;2022-07-22T07:44:30;22.60;99.90
34135;DHT22;20410;55.578;12.968;2022-07-22T07:46:55;22.70;99.90
34135;DHT22;20410;55.578;12.968;2022-07-22T07:49:21;22.70;99.90
34135;DHT22;20410;55.578;12.968;2022-07-22T07:51:47;22.50;99.90
34135;DHT22;20410;55.578;12.968;2022-07-22T07:54:12;22.40;99.90
34135;DHT22;20410;55.578;12.968;2022-07-22T07:56:38;22.30;99.90
34135;DHT22;20410;55.578;12.968;2022-07-22T07:59:03;22.20;99.90
34135;DHT22;20410;55.578;12.968;2022-07-22T08:01:29;22.10;99.90
34135;DHT22;20410;55.578;12.968;2022-07-22T08:03:54;22.00;99.90
34135;DHT22;20410;55.578;12.968;2022-07-22T08:06:20;22.20;99.90
34135;DHT22;20410;55.578;12.968;2022-07-22T08:08:46;22.20;99.90
34135;DHT22;20410;55.578;12.968;2022-07-22T08:11:11;22.30;99.90
34135;DHT22;20410;55.578;12.968;2022-07-22T08:13:37;22.30;99.90
34135;DHT22;20410;55.578;12.968;2022-07-22T08:16:03;22.30;99.90
34135;DHT22;20410;55.578;12.968;2022-07-22T08:18:29;22.40;99.90
34135;DHT22;20410;55.578;12.968;2022-07-22T08:20:55;22.40;99.90
34135;DHT22;20410;55.578;12.968;2022-07-22T08:23:21;22.30;99.90
34135;DHT22;20410;55.578;12.968;2022-07-22T08:25:46;22.10;99.90
34135;DHT22;20410;55.578;12.968;2022-07-22T08:28:12;22.10;99.90
34135;DHT22;20410;55.578;12.968;2022-07-22T08:30:38;22.10;99.90
34135;DHT22;20410;55.578;12.968;2022-07-22T08:33:05;22.10;99.90
34135;DHT22;20410;55.578;12.968;2022-07-22T08:35:31;22.00;99.90
34135;DHT22;20410;55.578;12.968;2022-07-22T08:37:57;22.00;99.90
34135;DHT22;20410;55.578;12.968;2022-07-22T08:40:23;22.10;99.90
34135;DHT22;20410;55.578;12.968;2022-07-22T08:42:49;22.10;99.90
34135;DHT22;20410;55.578;12.968;2022-07-22T08:45:16;22.10;99.90
34135;DHT22;20410;55.578;12.968;2022-07-22T08:47:51;22.10;99.90
34135;DHT22;20410;55.578;12.968;2022-07-22T08:50:17;22.10;99.90
34135;DHT22;20410;55.578;12.968;2022-07-22T08:52:43;22.00;99.90
34135;DHT22;20410;55.578;12.968;2022-07-22T08:55:09;22.00;99.90
34135;DHT22;20410;55.578;12.968;2022-07-22T08:57:35;22.00;99.90
34135;DHT22;20410;55.578;12.968;2022-07-22T09:00:10;21.90;99.90
34135;DHT22;20410;55.578;12.968;2022-07-22T09:02:40;21.80;99.90
34135;DHT22;20410;55.578;12.968;2022-07-22T09:05:07;21.70;99.90
34135;DHT22;20410;55.578;12.968;2022-07-22T09:07:35;21.70;99.90
34135;DHT22;20410;55.578;12.968;2022-07-22T09:10:05;21.60;99.90
34135;DHT22;20410;55.578;12.968;2022-07-22T09:12:31;21.70;99.90
34135;DHT22;20410;55.578;12.968;2022-07-22T09:14:59;21.70;99.90
34135;DHT22;20410;55.578;12.968;2022-07-22T09:17:27;21.80;99.90
34135;DHT22;20410;55.578;12.968;2022-07-22T09:19:57;21.90;99.90
34135;DHT22;20410;55.578;12.968;2022-07-22T09:22:33;21.90;99.90
34135;DHT22;20410;55.578;12.968;2022-07-22T09:27:42;22.20;99.90
34135;DHT22;20410;55.578;12.968;2022-07-22T09:30:12;22.20;99.90
34135;DHT22;20410;55.578;12.968;2022-07-22T09:32:40;22.10;99.90
34135;DHT22;20410;55.578;12.968;2022-07-22T09:35:07;22.10;99.90
34135;DHT22;20410;55.578;12.968;2022-07-22T09:37:33;22.30;99.90
34135;DHT22;20410;55.578;12.968;2022-07-22T09:40:19;22.40;99.90
34135;DHT22;20410;55.578;12.968;2022-07-22T09:42:56;22.60;99.90
34135;DHT22;20410;55.578;12.968;2022-07-22T09:45:25;22.60;99.90
34135;DHT22;20410;55.578;12.968;2022-07-22T09:47:53;22.60;99.90
34135;DHT22;20410;55.578;12.968;2022-07-22T09:52:48;22.50;99.90
34135;DHT22;20410;55.578;12.968;2022-07-22T09:55:15;22.50;99.90
34135;DHT22;20410;55.578;12.968;2022-07-22T09:57:41;22.40;99.90
34135;DHT22;20410;55.578;12.968;2022-07-22T10:00:07;22.40;99.90
34135;DHT22;20410;55.578;12.968;2022-07-22T10:02:52;22.40;99.90
34135;DHT22;20410;55.578;12.968;2022-07-22T10:05:21;22.50;99.90
34135;DHT22;20410;55.578;12.968;2022-07-22T10:07:48;22.70;99.90
34135;DHT22;20410;55.578;12.968;2022-07-22T10:10:21;22.80;99.90
34135;DHT22;20410;55.578;12.968;2022-07-22T10:12:51;22.90;99.90
34135;DHT22;20410;55.578;12.968;2022-07-22T10:15:17;23.00;99.90
34135;DHT22;20410;55.578;12.968;2022-07-22T10:17:50;23.20;99.90
34135;DHT22;20410;55.578;12.968;2022-07-22T10:20:18;23.10;99.90
34135;DHT22;20410;55.578;12.968;2022-07-22T10:25:13;23.20;99.90
34135;DHT22;20410;55.578;12.968;2022-07-22T10:30:42;22.90;99.90
34135;DHT22;20410;55.578;12.968;2022-07-22T10:33:19;22.70;99.90
34135;DHT22;20410;55.578;12.968;2022-07-22T10:35:57;22.40;99.90
34135;DHT22;20410;55.578;12.968;2022-07-22T10:38:24;22.30;99.90
34135;DHT22;20410;55.578;12.968;2022-07-22T10:40:59;22.20;99.90
34135;DHT22;20410;55.578;12.968;2022-07-22T10:43:26;22.00;99.90
34135;DHT22;20410;55.578;12.968;2022-07-22T10:46:00;22.00;99.90
34135;DHT22;20410;55.578;12.968;2022-07-22T10:48:45;21.90;99.90
34135;DHT22;20410;55.578;12.968;2022-07-22T10:51:19;21.90;99.90
34135;DHT22;20410;55.578;12.968;2022-07-22T10:58:45;21.70;99.90
34135;DHT22;20410;55.578;12.968;2022-07-22T11:01:15;21.70;99.90
34135;DHT22;20410;55.578;12.968;2022-07-22T11:03:42;21.50;99.90
34135;DHT22;20410;55.578;12.968;2022-07-22T11:08:41;21.50;99.90
34135;DHT22;20410;55.578;12.968;2022-07-22T11:11:06;21.50;99.90
34135;DHT22;20410;55.578;12.968;2022-07-22T11:13:37;21.50;99.90
34135;DHT22;20410;55.578;12.968;2022-07-22T11:16:21;21.50;99.90
34135;DHT22;20410;55.578;12.968;2022-07-22T11:18:56;21.60;99.90
34135;DHT22;20410;55.578;12.968;2022-07-22T11:21:25;21.60;99.90
34135;DHT22;20410;55.578;12.968;2022-07-22T11:23:54;21.90;99.90
34135;DHT22;20410;55.578;12.968;2022-07-22T11:26:26;22.40;99.90
34135;DHT22;20410;55.578;12.968;2022-07-22T11:28:51;22.60;99.90
34135;DHT22;20410;55.578;12.968;2022-07-22T11:31:18;22.70;99.90
34135;DHT22;20410;55.578;12.968;2022-07-22T11:33:47;22.70;99.90
34135;DHT22;20410;55.578;12.968;2022-07-22T11:36:13;22.70;99.90
34135;DHT22;20410;55.578;12.968;2022-07-22T11:38:49;22.70;99.90
34135;DHT22;20410;55.578;12.968;2022-07-22T11:41:16;22.80;99.90
34135;DHT22;20410;55.578;12.968;2022-07-22T11:46:09;23.20;99.90
34135;DHT22;20410;55.578;12.968;2022-07-22T11:48:34;23.30;99.90
34135;DHT22;20410;55.578;12.968;2022-07-22T11:51:01;23.50;99.90
34135;DHT22;20410;55.578;12.968;2022-07-22T11:53:27;23.70;99.90
34135;DHT22;20410;55.578;12.968;2022-07-22T11:56:00;23.80;99.90
34135;DHT22;20410;55.578;12.968;2022-07-22T12:01:09;24.00;99.90
34135;DHT22;20410;55.578;12.968;2022-07-22T12:03:36;24.30;99.90
34135;DHT22;20410;55.578;12.968;2022-07-22T12:06:04;24.50;99.90
34135;DHT22;20410;55.578;12.968;2022-07-22T12:08:32;24.60;99.90
34135;DHT22;20410;55.578;12.968;2022-07-22T12:10:58;24.70;99.90
34135;DHT22;20410;55.578;12.968;2022-07-22T12:13:31;24.60;99.90
34135;DHT22;20410;55.578;12.968;2022-07-22T12:15:57;24.70;99.90
34135;DHT22;20410;55.578;12.968;2022-07-22T12:18:25;24.80;99.90
34135;DHT22;20410;55.578;12.968;2022-07-22T12:20:53;25.00;99.90
34135;DHT22;20410;55.578;12.968;2022-07-22T12:23:21;25.10;99.90
34135;DHT22;20410;55.578;12.968;2022-07-22T12:25:51;25.10;99.90
34135;DHT22;20410;55.578;12.968;2022-07-22T12:28:17;25.10;99.90
34135;DHT22;20410;55.578;12.968;2022-07-22T12:30:43;25.00;99.90
34135;DHT22;20410;55.578;12.968;2022-07-22T12:33:16;24.80;99.90
34135;DHT22;20410;55.578;12.968;2022-07-22T12:35:42;24.90;99.90
34135;DHT22;20410;55.578;12.968;2022-07-22T12:38:09;24.90;99.90
34135;DHT22;20410;55.578;12.968;2022-07-22T12:40:35;25.00;99.90
34135;DHT22;20410;55.578;12.968;2022-07-22T12:43:06;25.20;99.90
34135;DHT22;20410;55.578;12.968;2022-07-22T12:45:34;25.50;99.90
34135;DHT22;20410;55.578;12.968;2022-07-22T12:50:56;25.90;99.90
34135;DHT22;20410;55.578;12.968;2022-07-22T12:53:22;26.30;99.90
34135;DHT22;20410;55.578;12.968;2022-07-22T12:55:50;26.20;99.90
34135;DHT22;20410;55.578;12.968;2022-07-22T12:58:24;26.20;99.90
34135;DHT22;20410;55.578;12.968;2022-07-22T13:00:52;26.00;99.90
34135;DHT22;20410;55.578;12.968;2022-07-22T13:03:19;25.90;99.90
34135;DHT22;20410;55.578;12.968;2022-07-22T13:05:52;25.70;99.90
34135;DHT22;20410;55.578;12.968;2022-07-22T13:08:18;25.50;99.90
34135;DHT22;20410;55.578;12.968;2022-07-22T13:10:44;25.40;99.90
34135;DHT22;20410;55.578;12.968;2022-07-22T13:13:10;25.40;99.90
34135;DHT22;20410;55.578;12.968;2022-07-22T13:15:36;25.50;99.90
34135;DHT22;20410;55.578;12.968;2022-07-22T13:18:02;25.50;99.90
34135;DHT22;20410;55.578;12.968;2022-07-22T13:20:27;25.60;99.90
34135;DHT22;20410;55.578;12.968;2022-07-22T13:22:53;25.70;99.90
34135;DHT22;20410;55.578;12.968;2022-07-22T13:25:19;25.60;99.90
34135;DHT22;20410;55.578;12.968;2022-07-22T13:27:44;25.70;99.90
34135;DHT22;20410;55.578;12.968;2022-07-22T13:30:10;25.80;99.90
34135;DHT22;20410;55.578;12.968;2022-07-22T13:32:36;25.80;99.90
34135;DHT22;20410;55.578;12.968;2022-07-22T13:35:02;25.80;99.90
34135;DHT22;20410;55.578;12.968;2022-07-22T13:37:28;25.80;99.90
34135;DHT22;20410;55.578;12.968;2022-07-22T13:39:53;25.80;99.90
34135;DHT22;20410;55.578;12.968;2022-07-22T13:42:19;25.70;99.90
34135;DHT22;20410;55.578;12.968;2022-07-22T13:44:46;25.60;99.90
34135;DHT22;20410;55.578;12.968;2022-07-22T13:47:11;25.60;99.90
34135;DHT22;20410;55.578;12.968;2022-07-22T13:49:37;25.60;99.90
34135;DHT22;20410;55.578;12.968;2022-07-22T13:52:04;25.70;99.90
34135;DHT22;20410;55.578;12.968;2022-07-22T13:54:30;25.80;99.90
34135;DHT22;20410;55.578;12.968;2022-07-22T13:56:55;25.80;99.90
34135;DHT22;20410;55.578;12.968;2022-07-22T13:59:23;25.90;99.90
34135;DHT22;20410;55.578;12.968;2022-07-22T14:01:49;26.00;99.90
34135;DHT22;20410;55.578;12.968;2022-07-22T14:04:15;26.00;99.90
34135;DHT22;20410;55.578;12.968;2022-07-22T14:06:40;26.10;99.90
34135;DHT22;20410;55.578;12.968;2022-07-22T14:09:06;26.00;99.90
34135;DHT22;20410;55.578;12.968;2022-07-22T14:11:32;25.70;99.90
34135;DHT22;20410;55.578;12.968;2022-07-22T14:13:57;25.60;99.90
34135;DHT22;20410;55.578;12.968;2022-07-22T14:16:23;25.80;99.90
34135;DHT22;20410;55.578;12.968;2022-07-22T14:19:10;25.80;99.90
34135;DHT22;20410;55.578;12.968;2022-07-22T14:21:38;25.90;99.90
34135;DHT22;20410;55.578;12.968;2022-07-22T14:24:05;25.90;99.90
34135;DHT22;20410;55.578;12.968;2022-07-22T14:26:31;26.00;99.90
34135;DHT22;20410;55.578;12.968;2022-07-22T14:28:57;26.00;99.90
34135;DHT22;20410;55.578;12.968;2022-07-22T14:31:23;26.00;99.90
34135;DHT22;20410;55.578;12.968;2022-07-22T14:33:48;26.00;99.90
34135;DHT22;20410;55.578;12.968;2022-07-22T14:36:15;26.00;99.90
34135;DHT22;20410;55.578;12.968;2022-07-22T14:38:40;26.10;99.90
34135;DHT22;20410;55.578;12.968;2022-07-22T14:41:06;26.20;99.90
34135;DHT22;20410;55.578;12.968;2022-07-22T14:43:33;26.20;99.90
34135;DHT22;20410;55.578;12.968;2022-07-22T14:45:59;26.00;99.90
34135;DHT22;20410;55.578;12.968;2022-07-22T14:48:26;26.00;99.90
34135;DHT22;20410;55.578;12.968;2022-07-22T14:50:52;26.00;99.90
34135;DHT22;20410;55.578;12.968;2022-07-22T14:53:17;26.10;99.90
34135;DHT22;20410;55.578;12.968;2022-07-22T14:55:43;26.10;99.90
34135;DHT22;20410;55.578;12.968;2022-07-22T14:58:08;26.10;99.90
34135;DHT22;20410;55.578;12.968;2022-07-22T15:00:34;26.00;99.90
34135;DHT22;20410;55.578;12.968;2022-07-22T15:03:00;25.80;99.90
34135;DHT22;20410;55.578;12.968;2022-07-22T15:05:25;25.70;99.90
34135;DHT22;20410;55.578;12.968;2022-07-22T15:07:51;25.60;99.90
34135;DHT22;20410;55.578;12.968;2022-07-22T15:10:16;25.60;99.90
34135;DHT22;20410;55.578;12.968;2022-07-22T15:12:42;25.70;99.90
34135;DHT22;20410;55.578;12.968;2022-07-22T15:15:08;25.80;99.90
34135;DHT22;20410;55.578;12.968;2022-07-22T15:17:36;25.80;99.90
34135;DHT22;20410;55.578;12.968;2022-07-22T15:20:04;25.80;99.90
34135;DHT22;20410;55.578;12.968;2022-07-22T15:22:30;25.70;99.90
34135;DHT22;20410;55.578;12.968;2022-07-22T15:24:56;25.60;99.90
34135;DHT22;20410;55.578;12.968;2022-07-22T15:27:21;25.60;99.90
34135;DHT22;20410;55.578;12.968;2022-07-22T15:29:47;25.50;99.90
34135;DHT22;20410;55.578;12.968;2022-07-22T15:32:14;25.30;99.90
34135;DHT22;20410;55.578;12.968;2022-07-22T15:34:39;25.20;99.90
34135;DHT22;20410;55.578;12.968;2022-07-22T15:37:05;25.00;99.90
34135;DHT22;20410;55.578;12.968;2022-07-22T15:39:31;24.90;99.90